»·PEaware :: N1AP KAPA-KASE

N1AP :: KAPA-KASE

FLIGHT INFORMATION

Flight Status: Arrived
Operator: Privately registered:
United States
More flights under this callsign
Pilot: Austin P. (20876)
Aircraft: Unknown
(ZZZZ)
More flights by this aircraft type
Origin: KAPA Centennial
United States
Destination: KASE Aspen-Pitkin Co/Sardy
United States
More flights between these airports :: More routes between these airports
Route: +
File this flight plan on PilotEdge
Remarks:
Altitude:
(Current/Filed)
0ft
Speed:
(Current/Filed)
0kts
Departed: 04-Apr-20 01:27 PM
Arrived: 04-Apr-20 01:59 PM
Distance/Time
Traveled:
96nm/0:32
Distance/Time
To Go:
Arrived

Flight Plot

Page will automatically refresh every two minutes.

Flight plan parsing failed; only flown route is shown


Map Options




Map Legend


Flown Route
Filed Route
Departure Airport
Arrival Airport
Navaid (VOR, NDB)
Fix

Horizontal Profiles

Position Reports

Time Latitude Longitude Heading Altitude Ground
Speed
04-Apr-20 13:14 39.576436 -104.847923 269 5887ft 0kts
04-Apr-20 13:15 39.576436 -104.847923 269 5887ft 0kts
04-Apr-20 13:16 39.576436 -104.847923 269 5887ft 0kts
04-Apr-20 13:17 39.576436 -104.847923 269 5887ft 0kts
04-Apr-20 13:18 39.576436 -104.847923 269 5887ft 0kts
04-Apr-20 13:19 39.576436 -104.847939 269 5887ft 2kts
04-Apr-20 13:20 39.576825 -104.848943 350 5887ft 11kts
04-Apr-20 13:21 39.580427 -104.849900 358 5887ft 15kts
04-Apr-20 13:22 39.584092 -104.850260 289 5887ft 0kts
04-Apr-20 13:23 39.584092 -104.850260 290 5887ft 0kts
04-Apr-20 13:24 39.584092 -104.850260 289 5887ft 0kts
04-Apr-20 13:25 39.584112 -104.850367 274 5887ft 4kts
04-Apr-20 13:26 39.573395 -104.850967 177 5918ft 102kts
04-Apr-20 13:27 39.564025 -104.879588 274 7432ft 130kts
04-Apr-20 13:28 39.561916 -104.925384 262 8341ft 127kts
04-Apr-20 13:29 39.555473 -104.972481 259 9444ft 155kts
04-Apr-20 13:30 39.545861 -105.032702 259 9446ft 172kts
04-Apr-20 13:31 39.535882 -105.093228 260 9446ft 171kts
04-Apr-20 13:32 39.526482 -105.149356 259 11491ft 160kts
04-Apr-20 13:33 39.517322 -105.204250 259 13998ft 152kts
04-Apr-20 13:34 39.507912 -105.260667 259 15456ft 217kts
04-Apr-20 13:35 39.492774 -105.351756 258 15457ft 273kts
04-Apr-20 13:36 39.476432 -105.448355 258 15462ft 275kts
04-Apr-20 13:37 39.459517 -105.547635 258 15473ft 284kts
04-Apr-20 13:38 39.442402 -105.647556 258 15489ft 284kts
04-Apr-20 13:39 39.425183 -105.747116 258 15509ft 284kts
04-Apr-20 13:40 39.407765 -105.846728 258 15518ft 284kts
04-Apr-20 13:41 39.389856 -105.950960 258 14565ft 295kts
04-Apr-20 13:42 39.371957 -106.053055 258 14591ft 287kts
04-Apr-20 13:43 39.354792 -106.150543 258 14588ft 260kts
04-Apr-20 13:44 39.338658 -106.241392 258 14590ft 255kts
04-Apr-20 13:45 39.322572 -106.331380 258 14589ft 254kts
04-Apr-20 13:46 39.306578 -106.420586 257 14555ft 251kts
04-Apr-20 13:47 39.292088 -106.500920 258 14552ft 217kts
04-Apr-20 13:48 39.278707 -106.575658 258 14551ft 211kts
04-Apr-20 13:49 39.266219 -106.644620 257 14537ft 164kts
04-Apr-20 13:50 39.269297 -106.694686 278 14537ft 130kts
04-Apr-20 13:51 39.276477 -106.742806 285 14526ft 128kts
04-Apr-20 13:52 39.299393 -106.777301 296 14001ft 134kts
04-Apr-20 13:53 39.301580 -106.822162 246 12576ft 116kts
04-Apr-20 13:54 39.291538 -106.852710 257 12117ft 85kts
04-Apr-20 13:55 39.283514 -106.880528 209 10820ft 95kts
04-Apr-20 13:56 39.257699 -106.883974 176 9300ft 94kts
04-Apr-20 13:57 39.233152 -106.873545 157 7900ft 84kts
04-Apr-20 13:58 39.220297 -106.866812 77 7837ft 12kts
04-Apr-20 13:59 39.221367 -106.865931 341 7837ft 0kts
04-Apr-20 14:00 39.221367 -106.865931 341 7837ft 0kts
04-Apr-20 14:01 39.221367 -106.865931 341 7837ft 0kts
04-Apr-20 14:02 39.221367 -106.865931 341 7837ft 0kts
04-Apr-20 14:03 39.221367 -106.865931 341 7837ft 0kts
04-Apr-20 14:04 39.221367 -106.865931 341 7837ft 0kts
04-Apr-20 14:05 39.221367 -106.865931 341 7837ft 0kts
04-Apr-20 14:06 39.221367 -106.865931 341 7837ft 0kts
04-Apr-20 14:07 39.221367 -106.865931 341 7837ft 0kts
04-Apr-20 14:09 39.221367 -106.865931 341 7837ft 0kts
04-Apr-20 14:10 39.221367 -106.865931 341 7837ft 0kts
04-Apr-20 14:11 39.221367 -106.865931 341 7837ft 0kts
04-Apr-20 14:12 39.221367 -106.865931 341 7837ft 0kts

Navigation Log

Ident Type
Flight plan parsing failed, navigation log unavailable